| time (UTC) | temp C | wind direction | speed KPH | gust KPH | rain 1hr cm | rain 24hr cm | rain mn cm | humidity % | barometer mb |
| 20260906172342 | 36 | 180 | 4.8 | 6.4 | 0.00 | 0.00 | 0.00 | 44 | 1015.6 |
| 20260906171837 | 36 | 44 | 1.6 | 11.3 | 0.00 | 0.00 | 0.00 | 45 | 1015.9 |
| 20260906171332 | 36 | 71 | 6.4 | 11.3 | 0.00 | 0.00 | 0.00 | 44 | 1016.0 |
| 20260906170827 | 36 | 193 | 8.0 | 12.9 | 0.00 | 0.00 | 0.00 | 45 | 1016.0 |
| 20260906170323 | 36 | 164 | 4.8 | 9.7 | 0.00 | 0.00 | 0.00 | 44 | 1015.9 |
| 20260906165820 | 36 | 166 | 3.2 | 6.4 | 0.00 | 0.00 | 0.00 | 45 | 1016.0 |
| 20260906165314 | 36 | 101 | 9.7 | 12.9 | 0.00 | 0.00 | 0.00 | 45 | 1016.0 |
| 20260906164813 | 36 | 162 | 3.2 | 9.7 | 0.00 | 0.00 | 0.00 | 45 | 1016.2 |
| 20260906164308 | 36 | 204 | 3.2 | 6.4 | 0.00 | 0.00 | 0.00 | 45 | 1016.1 |
| 20260906163804 | 36 | 156 | 8.0 | 9.7 | 0.00 | 0.00 | 0.00 | 47 | 1016.3 |
| 20260906163301 | 35 | 290 | 3.2 | 4.8 | 0.00 | 0.00 | 0.00 | 49 | 1016.2 |
| 20260906162758 | 35 | 84 | 6.4 | 11.3 | 0.00 | 0.00 | 0.00 | 49 | 1016.3 |
| 20260906162256 | 35 | 262 | 1.6 | 4.8 | 0.00 | 0.00 | 0.00 | 50 | 1016.4 |
| 20260906161751 | 35 | 153 | 3.2 | 14.5 | 0.00 | 0.00 | 0.00 | 50 | 1016.4 |
| 20260906161250 | 35 | 152 | 8.0 | 11.3 | 0.00 | 0.00 | 0.00 | 49 | 1016.5 |
| 20260906160749 | 35 | 170 | 6.4 | 12.9 | 0.00 | 0.00 | 0.00 | 51 | 1016.4 |
| 20260906160243 | 34 | 166 | 3.2 | 9.7 | 0.00 | 0.00 | 0.00 | 52 | 1016.5 |
| 20260906155740 | 34 | 182 | 1.6 | 6.4 | 0.00 | 0.00 | 0.00 | 53 | 1016.5 |
| 20260906155236 | 33 | 101 | 3.2 | 6.4 | 0.00 | 0.00 | 0.00 | 54 | 1016.4 |
| 20260906154731 | 33 | 129 | 6.4 | 12.9 | 0.00 | 0.00 | 0.00 | 56 | 1016.5 |
| 20260906154226 | 33 | 193 | 3.2 | 6.4 | 0.00 | 0.00 | 0.00 | 56 | 1016.5 |
| 20260906153724 | 33 | 91 | 6.4 | 9.7 | 0.00 | 0.00 | 0.00 | 57 | 1016.5 |
| 20260906153219 | 33 | 171 | 3.2 | 9.7 | 0.00 | 0.00 | 0.00 | 58 | 1016.3 |
| 20260906152714 | 33 | 138 | 9.7 | 12.9 | 0.00 | 0.00 | 0.00 | 57 | 1016.2 |
| 20260906152210 | 33 | 122 | 4.8 | 4.8 | 0.00 | 0.00 | 0.00 | 58 | 1016.4 |
| 20260906151704 | 33 | 173 | 4.8 | 6.4 | 0.00 | 0.00 | 0.00 | 59 | 1016.5 |
| 20260906151159 | 32 | 171 | 6.4 | 9.7 | 0.00 | 0.00 | 0.00 | 59 | 1016.2 |
| 20260906150654 | 32 | 167 | 3.2 | 9.7 | 0.00 | 0.00 | 0.00 | 62 | 1016.5 |
| 20260906150149 | 32 | 183 | 1.6 | 6.4 | 0.00 | 0.00 | 0.00 | 61 | 1016.5 |
| 20260906145648 | 31 | 173 | 6.4 | 9.7 | 0.00 | 0.00 | 0.00 | 62 | 1016.2 |
| 20260906145143 | 31 | 181 | 9.7 | 11.3 | 0.00 | 0.00 | 0.00 | 64 | 1016.2 |
| 20260906144638 | 31 | 166 | 8.0 | 11.3 | 0.00 | 0.00 | 0.00 | 65 | 1016.4 |
| 20260906144138 | 31 | 211 | 4.8 | 9.7 | 0.00 | 0.00 | 0.00 | 66 | 1016.3 |
| 20260906143637 | 31 | 141 | 3.2 | 4.8 | 0.00 | 0.00 | 0.00 | 66 | 1016.4 |
| 20260906143135 | 30 | 171 | 6.4 | 9.7 | 0.00 | 0.00 | 0.00 | 66 | 1016.2 |
| 20260906142633 | 30 | 159 | 6.4 | 11.3 | 0.00 | 0.00 | 0.00 | 68 | 1016.1 |
| 20260906142129 | 30 | 143 | 6.4 | 9.7 | 0.00 | 0.00 | 0.00 | 67 | 1016.2 |
| 20260906141628 | 30 | 126 | 3.2 | 11.3 | 0.00 | 0.00 | 0.00 | 69 | 1016.3 |
| 20260906141123 | 29 | 183 | 1.6 | 4.8 | 0.00 | 0.00 | 0.00 | 71 | 1016.2 |
| 20260906140622 | 28 | 137 | 9.7 | 17.7 | 0.00 | 0.00 | 0.00 | 72 | 1016.2 |
| 20260906140117 | 28 | 140 | 1.6 | 9.7 | 0.00 | 0.00 | 0.00 | 72 | 1016.1 |
| 20260906135614 | 28 | 139 | 12.9 | 16.1 | 0.00 | 0.00 | 0.00 | 73 | 1016.1 |
| 20260906135110 | 28 | 196 | 11.3 | 14.5 | 0.00 | 0.00 | 0.00 | 73 | 1016.0 |
| 20260906134606 | 27 | 136 | 9.7 | 17.7 | 0.00 | 0.00 | 0.00 | 75 | 1016.1 |
| 20260906134101 | 27 | 187 | 12.9 | 17.7 | 0.00 | 0.00 | 0.00 | 76 | 1016.1 |
| 20260906133556 | 27 | 129 | 4.8 | 9.7 | 0.00 | 0.00 | 0.00 | 75 | 1016.0 |
| 20260906133052 | 27 | 123 | 8.0 | 16.1 | 0.00 | 0.00 | 0.00 | 77 | 1016.2 |
| 20260906132547 | 27 | 158 | 8.0 | 12.9 | 0.00 | 0.00 | 0.00 | 77 | 1016.2 |
| 20260906132042 | 27 | 138 | 9.7 | 11.3 | 0.00 | 0.00 | 0.00 | 77 | 1016.0 |
| 20260906131537 | 27 | 160 | 6.4 | 9.7 | 0.00 | 0.00 | 0.00 | 77 | 1016.2 |
| 20260906131033 | 27 | 155 | 4.8 | 6.4 | 0.00 | 0.00 | 0.00 | 78 | 1016.0 |
| 20260906130532 | 26 | 125 | 6.4 | 6.4 | 0.00 | 0.00 | 0.00 | 79 | 1016.0 |
| 20260906130028 | 26 | 142 | 3.2 | 9.7 | 0.00 | 0.00 | 0.00 | 80 | 1015.9 |
| 20260906125525 | 26 | 123 | 3.2 | 4.8 | 0.00 | 0.00 | 0.00 | 80 | 1015.7 |
| 20260906125024 | 26 | 144 | 3.2 | 6.4 | 0.00 | 0.00 | 0.00 | 81 | 1015.8 |
| 20260906124520 | 26 | 171 | 6.4 | 6.4 | 0.00 | 0.00 | 0.00 | 81 | 1015.7 |
| 20260906124016 | 25 | 139 | 4.8 | 9.7 | 0.00 | 0.00 | 0.00 | 82 | 1015.5 |
| 20260906123514 | 25 | 165 | 4.8 | 11.3 | 0.00 | 0.00 | 0.00 | 82 | 1015.6 |
| 20260906123009 | 25 | 148 | 6.4 | 9.7 | 0.00 | 0.00 | 0.00 | 84 | 1015.4 |
| 20260906122504 | 25 | 144 | 3.2 | 4.8 | 0.00 | 0.00 | 0.00 | 85 | 1015.4 |
| 20260906122000 | 25 | 146 | 4.8 | 9.7 | 0.00 | 0.00 | 0.00 | 85 | 1015.4 |
| 20260906121456 | 25 | 158 | 3.2 | 6.4 | 0.00 | 0.00 | 0.00 | 85 | 1015.3 |
| 20260906120952 | 25 | 168 | 6.4 | 6.4 | 0.00 | 0.00 | 0.00 | 85 | 1015.3 |
| 20260906120447 | 25 | 159 | 4.8 | 4.8 | 0.00 | 0.00 | 0.00 | 86 | 1015.4 |
| 20260906115944 | 25 | 159 | 6.4 | 6.4 | 0.00 | 0.00 | 0.00 | 87 | 1015.2 |
| 20260906115439 | 25 | 151 | 3.2 | 4.8 | 0.00 | 0.00 | 0.00 | 87 | 1015.3 |
| 20260906114939 | 25 | 116 | 3.2 | 3.2 | 0.00 | 0.00 | 0.00 | 86 | 1015.2 |
| 20260906114438 | 25 | 153 | 4.8 | 4.8 | 0.00 | 0.00 | 0.00 | 86 | 1015.1 |
| 20260906113935 | 25 | 164 | 1.6 | 4.8 | 0.00 | 0.00 | 0.00 | 86 | 1015.2 |
| 20260906113433 | 25 | 134 | 3.2 | 6.4 | 0.00 | 0.00 | 0.00 | 86 | 1015.2 |
| 20260906112929 | 25 | 140 | 4.8 | 6.4 | 0.00 | 0.00 | 0.00 | 86 | 1015.3 |
| 20260906112424 | 25 | 130 | 3.2 | 4.8 | 0.00 | 0.00 | 0.00 | 86 | 1015.3 |
| 20260906111920 | 25 | 118 | 3.2 | 9.7 | 0.00 | 0.00 | 0.00 | 85 | 1015.2 |
| 20260906111419 | 25 | 121 | 4.8 | 4.8 | 0.00 | 0.00 | 0.00 | 85 | 1015.1 |
| 20260906110914 | 25 | 139 | 4.8 | 4.8 | 0.00 | 0.00 | 0.00 | 84 | 1015.0 |
| 20260906110410 | 25 | 143 | 3.2 | 4.8 | 0.00 | 0.00 | 0.00 | 84 | 1015.1 |
| 20260906105909 | 25 | 167 | 6.4 | 6.4 | 0.00 | 0.00 | 0.00 | 84 | 1015.3 |
| 20260906105404 | 25 | 97 | 4.8 | 9.7 | 0.00 | 0.00 | 0.00 | 83 | 1015.2 |
| 20260906104900 | 25 | 141 | 4.8 | 9.7 | 0.00 | 0.00 | 0.00 | 83 | 1015.0 |
| 20260906104359 | 25 | 122 | 6.4 | 6.4 | 0.00 | 0.00 | 0.00 | 82 | 1015.0 |
| 20260906103858 | 25 | 142 | 3.2 | 6.4 | 0.00 | 0.00 | 0.00 | 81 | 1014.9 |
| 20260906103356 | 25 | 98 | 4.8 | 4.8 | 0.00 | 0.00 | 0.00 | 80 | 1014.9 |
| 20260906102852 | 26 | 118 | 3.2 | 6.4 | 0.00 | 0.00 | 0.00 | 79 | 1014.9 |
| 20260906102351 | 26 | 130 | 3.2 | 9.7 | 0.00 | 0.00 | 0.00 | 78 | 1014.7 |
| 20260906101846 | 26 | 111 | 3.2 | 4.8 | 0.00 | 0.00 | 0.00 | 78 | 1014.9 |
| 20260906101341 | 26 | 98 | 3.2 | 9.7 | 0.00 | 0.00 | 0.00 | 78 | 1014.7 |
| 20260906100837 | 26 | 125 | 4.8 | 6.4 | 0.00 | 0.00 | 0.00 | 77 | 1014.8 |
| 20260906100336 | 26 | 116 | 6.4 | 9.7 | 0.00 | 0.00 | 0.00 | 76 | 1014.8 |
| 20260906095831 | 26 | 133 | 4.8 | 11.3 | 0.00 | 0.00 | 0.00 | 76 | 1014.6 |
| 20260906095327 | 26 | 105 | 3.2 | 6.4 | 0.00 | 0.00 | 0.00 | 76 | 1014.5 |
| 20260906094826 | 26 | 102 | 4.8 | 6.4 | 0.00 | 0.00 | 0.00 | 76 | 1014.6 |
| 20260906094321 | 26 | 152 | 4.8 | 6.4 | 0.00 | 0.00 | 0.00 | 76 | 1014.5 |
| 20260906093817 | 26 | 161 | 1.6 | 3.2 | 0.00 | 0.00 | 0.00 | 76 | 1014.6 |
| 20260906093313 | 26 | 128 | 1.6 | 3.2 | 0.00 | 0.00 | 0.00 | 75 | 1014.6 |
| 20260906092808 | 26 | 116 | 1.6 | 3.2 | 0.00 | 0.00 | 0.00 | 74 | 1014.3 |
| 20260906092305 | 27 | 135 | 1.6 | 3.2 | 0.00 | 0.00 | 0.00 | 73 | 1014.5 |
| 20260906091758 | 27 | 147 | 1.6 | 3.2 | 0.00 | 0.00 | 0.00 | 72 | 1014.4 |
| 20260906091254 | 26 | 146 | 1.6 | 3.2 | 0.00 | 0.00 | 0.00 | 73 | 1014.2 |
| 20260906090750 | 26 | 134 | 1.6 | 3.2 | 0.00 | 0.00 | 0.00 | 73 | 1014.5 |
| 20260906090249 | 26 | 145 | 1.6 | 3.2 | 0.00 | 0.00 | 0.00 | 74 | 1014.4 |
| 20260906085748 | 26 | 188 | 0.0 | 3.2 | 0.00 | 0.00 | 0.00 | 74 | 1014.4 |
| 20260906085247 | 26 | 189 | 0.0 | 1.6 | 0.00 | 0.00 | 0.00 | 73 | 1014.5 |
| 20260906084737 | 26 | 189 | 0.0 | 1.6 | 0.00 | 0.00 | 0.00 | 73 | 1014.3 |
| 20260906084236 | 27 | 188 | 1.6 | 1.6 | 0.00 | 0.00 | 0.00 | 72 | 1014.2 |
| 20260906083731 | 27 | 182 | 0.0 | 1.6 | 0.00 | 0.00 | 0.00 | 71 | 1014.4 |
| 20260906083227 | 27 | 178 | 1.6 | 1.6 | 0.00 | 0.00 | 0.00 | 70 | 1014.3 |
| 20260906082722 | 27 | 187 | 1.6 | 1.6 | 0.00 | 0.00 | 0.00 | 69 | 1014.2 |
| 20260906082217 | 28 | 192 | 1.6 | 3.2 | 0.00 | 0.00 | 0.00 | 68 | 1014.1 |
| 20260906081713 | 28 | 167 | 3.2 | 4.8 | 0.00 | 0.00 | 0.00 | 67 | 1014.0 |
| 20260906081208 | 28 | 132 | 6.4 | 6.4 | 0.00 | 0.00 | 0.00 | 67 | 1014.3 |
| 20260906080704 | 28 | 150 | 4.8 | 6.4 | 0.00 | 0.00 | 0.00 | 67 | 1014.0 |
| 20260906080154 | 28 | 123 | 4.8 | 6.4 | 0.00 | 0.00 | 0.00 | 66 | 1014.2 |
| 20260906075654 | 28 | 128 | 8.0 | 9.7 | 0.00 | 0.00 | 0.00 | 66 | 1014.1 |
| 20260906075143 | 28 | 134 | 4.8 | 11.3 | 0.00 | 0.00 | 0.00 | 66 | 1014.1 |
| 20260906074638 | 28 | 148 | 6.4 | 9.7 | 0.00 | 0.00 | 0.00 | 66 | 1014.0 |
| 20260906074137 | 28 | 140 | 4.8 | 9.7 | 0.00 | 0.00 | 0.00 | 67 | 1014.0 |
| 20260906073632 | 28 | 121 | 6.4 | 11.3 | 0.00 | 0.00 | 0.00 | 67 | 1014.0 |
| 20260906073128 | 28 | 101 | 4.8 | 11.3 | 0.00 | 0.00 | 0.00 | 67 | 1014.2 |
| 20260906072623 | 28 | 130 | 4.8 | 9.7 | 0.00 | 0.00 | 0.00 | 67 | 1014.1 |
| 20260906072118 | 28 | 122 | 4.8 | 6.4 | 0.00 | 0.00 | 0.00 | 66 | 1014.1 |
| 20260906071614 | 28 | 122 | 4.8 | 9.7 | 0.00 | 0.00 | 0.00 | 66 | 1014.0 |
| 20260906071109 | 28 | 128 | 6.4 | 9.7 | 0.00 | 0.00 | 0.00 | 66 | 1014.2 |
| 20260906070606 | 28 | 111 | 4.8 | 6.4 | 0.00 | 0.00 | 0.00 | 67 | 1014.3 |
| 20260906070101 | 28 | 133 | 4.8 | 6.4 | 0.00 | 0.00 | 0.00 | 66 | 1014.3 |
| 20260906065601 | 28 | 146 | 3.2 | 11.3 | 0.00 | 0.00 | 0.00 | 65 | 1014.4 |
| 20260906065056 | 28 | 148 | 4.8 | 6.4 | 0.00 | 0.00 | 0.00 | 65 | 1014.4 |
| 20260906064552 | 28 | 123 | 4.8 | 9.7 | 0.00 | 0.00 | 0.00 | 65 | 1014.5 |
| 20260906064047 | 28 | 137 | 6.4 | 6.4 | 0.00 | 0.00 | 0.00 | 66 | 1014.5 |
| 20260906063542 | 28 | 114 | 4.8 | 9.7 | 0.00 | 0.00 | 0.00 | 65 | 1014.7 |
| 20260906063038 | 29 | 104 | 6.4 | 6.4 | 0.00 | 0.00 | 0.00 | 64 | 1014.7 |
| 20260906062533 | 29 | 145 | 6.4 | 6.4 | 0.00 | 0.00 | 0.00 | 64 | 1014.7 |
| 20260906062027 | 30 | 155 | 6.4 | 9.7 | 0.00 | 0.00 | 0.00 | 63 | 1014.7 |
| 20260906061523 | 30 | 125 | 6.4 | 11.3 | 0.00 | 0.00 | 0.00 | 62 | 1014.8 |
| 20260906061022 | 29 | 136 | 6.4 | 9.7 | 0.00 | 0.00 | 0.00 | 62 | 1014.8 |
| 20260906060519 | 30 | 130 | 6.4 | 6.4 | 0.00 | 0.00 | 0.00 | 62 | 1014.7 |
| 20260906060016 | 29 | 119 | 4.8 | 6.4 | 0.00 | 0.00 | 0.00 | 63 | 1014.7 |
| 20260906055511 | 30 | 130 | 6.4 | 9.7 | 0.00 | 0.00 | 0.00 | 62 | 1014.7 |
| 20260906055006 | 30 | 117 | 3.2 | 6.4 | 0.00 | 0.00 | 0.00 | 63 | 1014.7 |
| 20260906054501 | 30 | 133 | 6.4 | 9.7 | 0.00 | 0.00 | 0.00 | 62 | 1014.8 |
| 20260906053956 | 29 | 86 | 4.8 | 6.4 | 0.00 | 0.00 | 0.00 | 63 | 1014.8 |
| 20260906053453 | 29 | 135 | 3.2 | 6.4 | 0.00 | 0.00 | 0.00 | 64 | 1014.7 |
| 20260906052948 | 29 | 133 | 3.2 | 6.4 | 0.00 | 0.00 | 0.00 | 63 | 1014.8 |
| 20260906052444 | 29 | 114 | 4.8 | 9.7 | 0.00 | 0.00 | 0.00 | 63 | 1014.7 |
| 20260906051941 | 29 | 141 | 3.2 | 6.4 | 0.00 | 0.00 | 0.00 | 63 | 1014.7 |
| 20260906051436 | 29 | 115 | 3.2 | 6.4 | 0.00 | 0.00 | 0.00 | 63 | 1014.7 |
| 20260906050932 | 30 | 138 | 4.8 | 4.8 | 0.00 | 0.00 | 0.00 | 63 | 1014.7 |
| 20260906050431 | 30 | 134 | 4.8 | 6.4 | 0.00 | 0.00 | 0.00 | 62 | 1014.8 |
| 20260906045930 | 30 | 116 | 3.2 | 4.8 | 0.00 | 0.00 | 0.00 | 62 | 1014.6 |
| 20260906045429 | 30 | 149 | 3.2 | 6.4 | 0.00 | 0.00 | 0.00 | 62 | 1014.7 |
| 20260906044926 | 30 | 127 | 4.8 | 9.7 | 0.00 | 0.00 | 0.00 | 62 | 1014.6 |
| 20260906044426 | 30 | 136 | 4.8 | 4.8 | 0.00 | 0.00 | 0.00 | 63 | 1014.7 |
| 20260906043922 | 30 | 108 | 3.2 | 4.8 | 0.00 | 0.00 | 0.00 | 63 | 1014.6 |
| 20260906043417 | 30 | 136 | 4.8 | 6.4 | 0.00 | 0.00 | 0.00 | 62 | 1014.7 |
| 20260906042912 | 30 | 133 | 3.2 | 6.4 | 0.00 | 0.00 | 0.00 | 63 | 1014.8 |
| 20260906042411 | 30 | 170 | 3.2 | 9.7 | 0.00 | 0.00 | 0.00 | 62 | 1014.5 |
| 20260906041906 | 30 | 148 | 4.8 | 6.4 | 0.00 | 0.00 | 0.00 | 63 | 1014.7 |
| 20260906041402 | 29 | 164 | 4.8 | 6.4 | 0.00 | 0.00 | 0.00 | 63 | 1014.8 |
| 20260906040856 | 30 | 161 | 3.2 | 4.8 | 0.00 | 0.00 | 0.00 | 63 | 1014.7 |
| 20260906040352 | 30 | 161 | 4.8 | 6.4 | 0.00 | 0.00 | 0.00 | 63 | 1014.9 |
| 20260906035847 | 30 | 144 | 3.2 | 4.8 | 0.00 | 0.00 | 0.00 | 63 | 1014.7 |
| 20260906035342 | 30 | 166 | 3.2 | 4.8 | 0.00 | 0.00 | 0.00 | 63 | 1014.9 |
| 20260906034837 | 30 | 123 | 1.6 | 4.8 | 0.00 | 0.00 | 0.00 | 63 | 1014.7 |
| 20260906034332 | 30 | 131 | 3.2 | 4.8 | 0.00 | 0.00 | 0.00 | 62 | 1014.7 |
| 20260906033828 | 30 | 182 | 3.2 | 4.8 | 0.00 | 0.00 | 0.00 | 62 | 1014.7 |
| 20260906033327 | 30 | 120 | 3.2 | 6.4 | 0.00 | 0.00 | 0.00 | 61 | 1014.7 |
| 20260906032824 | 30 | 144 | 4.8 | 6.4 | 0.00 | 0.00 | 0.00 | 61 | 1014.5 |
| 20260906032319 | 30 | 146 | 6.4 | 6.4 | 0.00 | 0.00 | 0.00 | 61 | 1014.3 |
| 20260906031814 | 30 | 118 | 3.2 | 6.4 | 0.00 | 0.00 | 0.00 | 61 | 1014.4 |
| 20260906031310 | 30 | 108 | 4.8 | 6.4 | 0.00 | 0.00 | 0.00 | 61 | 1014.3 |
| 20260906030810 | 30 | 147 | 4.8 | 9.7 | 0.00 | 0.00 | 0.00 | 60 | 1014.5 |
| 20260906030305 | 30 | 111 | 9.7 | 11.3 | 0.00 | 0.00 | 0.00 | 60 | 1014.0 |
| 20260906025805 | 30 | 147 | 4.8 | 9.7 | 0.00 | 0.00 | 0.00 | 60 | 1014.3 |
| 20260906025259 | 30 | 114 | 6.4 | 11.3 | 0.00 | 0.00 | 0.00 | 59 | 1014.2 |
| 20260906024758 | 31 | 128 | 4.8 | 9.7 | 0.00 | 0.00 | 0.00 | 59 | 1014.1 |
| 20260906024257 | 31 | 100 | 4.8 | 9.7 | 0.00 | 0.00 | 0.00 | 59 | 1013.8 |
| 20260906023753 | 31 | 102 | 3.2 | 6.4 | 0.00 | 0.00 | 0.00 | 59 | 1014.2 |
| 20260906023248 | 31 | 107 | 3.2 | 4.8 | 0.00 | 0.00 | 0.00 | 59 | 1014.0 |
| 20260906022744 | 31 | 119 | 4.8 | 9.7 | 0.00 | 0.00 | 0.00 | 59 | 1014.1 |
| 20260906022239 | 31 | 79 | 4.8 | 6.4 | 0.00 | 0.00 | 0.00 | 58 | 1013.6 |
| 20260906021735 | 31 | 99 | 3.2 | 6.4 | 0.00 | 0.00 | 0.00 | 58 | 1013.7 |
| 20260906021233 | 31 | 92 | 3.2 | 6.4 | 0.00 | 0.00 | 0.00 | 57 | 1013.6 |
| 20260906020728 | 31 | 117 | 3.2 | 6.4 | 0.00 | 0.00 | 0.00 | 57 | 1013.5 |
| 20260906020223 | 31 | 90 | 8.0 | 9.7 | 0.00 | 0.00 | 0.00 | 57 | 1013.4 |
| 20260906015717 | 31 | 90 | 4.8 | 6.4 | 0.00 | 0.00 | 0.00 | 57 | 1013.5 |
| 20260906015210 | 32 | 96 | 4.8 | 9.7 | 0.00 | 0.00 | 0.00 | 56 | 1013.4 |
| 20260906014705 | 32 | 99 | 6.4 | 9.7 | 0.00 | 0.00 | 0.00 | 56 | 1013.1 |
| 20260906014201 | 32 | 111 | 1.6 | 6.4 | 0.00 | 0.00 | 0.00 | 56 | 1013.2 |
| 20260906013657 | 32 | 89 | 3.2 | 9.7 | 0.00 | 0.00 | 0.00 | 55 | 1013.0 |
| 20260906013152 | 32 | 88 | 6.4 | 9.7 | 0.00 | 0.00 | 0.00 | 55 | 1013.0 |
| 20260906012651 | 32 | 126 | 4.8 | 11.3 | 0.00 | 0.00 | 0.00 | 55 | 1013.2 |
| 20260906012146 | 32 | 107 | 3.2 | 9.7 | 0.00 | 0.00 | 0.00 | 54 | 1013.0 |
| 20260906011642 | 32 | 81 | 1.6 | 6.4 | 0.00 | 0.00 | 0.00 | 54 | 1012.9 |
| 20260906011136 | 32 | 68 | 3.2 | 6.4 | 0.00 | 0.00 | 0.00 | 54 | 1012.8 |
| 20260906010632 | 32 | 93 | 3.2 | 6.4 | 0.00 | 0.00 | 0.00 | 54 | 1012.9 |
| 20260906010128 | 33 | 77 | 6.4 | 9.7 | 0.00 | 0.00 | 0.00 | 53 | 1012.8 |
| 20260906005627 | 33 | 98 | 3.2 | 4.8 | 0.00 | 0.00 | 0.00 | 53 | 1012.7 |
| 20260906005126 | 33 | 94 | 3.2 | 4.8 | 0.00 | 0.00 | 0.00 | 52 | 1012.9 |
| 20260906004625 | 33 | 92 | 4.8 | 4.8 | 0.00 | 0.00 | 0.00 | 52 | 1012.7 |
| 20260906004121 | 33 | 113 | 3.2 | 4.8 | 0.00 | 0.00 | 0.00 | 51 | 1012.7 |
| 20260906003616 | 33 | 87 | 1.6 | 3.2 | 0.00 | 0.00 | 0.00 | 51 | 1012.8 |
| 20260906003112 | 34 | 97 | 1.6 | 6.4 | 0.00 | 0.00 | 0.00 | 50 | 1012.5 |
| 20260906002607 | 34 | 98 | 4.8 | 4.8 | 0.00 | 0.00 | 0.00 | 50 | 1012.8 |
| 20260906002101 | 35 | 121 | 1.6 | 4.8 | 0.00 | 0.00 | 0.00 | 49 | 1012.8 |
| 20260906001551 | 35 | 92 | 3.2 | 4.8 | 0.00 | 0.00 | 0.00 | 48 | 1012.8 |
| 20260906001050 | 35 | 122 | 3.2 | 6.4 | 0.00 | 0.00 | 0.00 | 48 | 1012.7 |
| 20260906000546 | 35 | 146 | 1.6 | 6.4 | 0.00 | 0.00 | 0.00 | 47 | 1012.6 |
| 20260906000042 | 35 | 135 | 9.7 | 12.9 | 0.00 | 0.00 | 0.00 | 46 | 1012.7 |
| 20260905235536 | 36 | 136 | 1.6 | 14.5 | 0.00 | 0.00 | 0.00 | 46 | 1012.5 |
| 20260905235031 | 36 | 116 | 4.8 | 6.4 | 0.00 | 0.00 | 0.00 | 45 | 1012.5 |
| 20260905234526 | 36 | 134 | 1.6 | 11.3 | 0.00 | 0.00 | 0.00 | 45 | 1012.6 |
| 20260905234021 | 36 | 101 | 1.6 | 9.7 | 0.00 | 0.00 | 0.00 | 43 | 1012.8 |
| 20260905233516 | 36 | 116 | 4.8 | 11.3 | 0.00 | 0.00 | 0.00 | 43 | 1012.6 |
| 20260905233015 | 36 | 89 | 4.8 | 12.9 | 0.00 | 0.00 | 0.00 | 42 | 1012.5 |
| 20260905232511 | 37 | 135 | 6.4 | 11.3 | 0.00 | 0.00 | 0.00 | 41 | 1012.6 |
| 20260905232007 | 37 | 117 | 3.2 | 12.9 | 0.00 | 0.00 | 0.00 | 41 | 1012.5 |
| 20260905231502 | 37 | 341 | 8.0 | 16.1 | 0.00 | 0.00 | 0.00 | 40 | 1012.6 |
| 20260905230958 | 37 | 115 | 9.7 | 11.3 | 0.00 | 0.00 | 0.00 | 39 | 1012.5 |
| 20260905230456 | 37 | 142 | 1.6 | 3.2 | 0.00 | 0.00 | 0.00 | 38 | 1012.7 |
| 20260905225954 | 37 | 71 | 3.2 | 4.8 | 0.00 | 0.00 | 0.00 | 38 | 1012.5 |
| 20260905225450 | 37 | 94 | 4.8 | 11.3 | 0.00 | 0.00 | 0.00 | 39 | 1012.4 |
| 20260905224945 | 37 | 34 | 4.8 | 12.9 | 0.00 | 0.00 | 0.00 | 38 | 1012.5 |
| 20260905224440 | 37 | 129 | 3.2 | 6.4 | 0.00 | 0.00 | 0.00 | 38 | 1012.5 |
| 20260905223939 | 38 | 17 | 3.2 | 4.8 | 0.00 | 0.00 | 0.00 | 37 | 1012.4 |
| 20260905223438 | 38 | 51 | 3.2 | 6.4 | 0.00 | 0.00 | 0.00 | 37 | 1012.5 |
| 20260905222932 | 38 | 115 | 3.2 | 6.4 | 0.00 | 0.00 | 0.00 | 37 | 1012.4 |
| 20260905222432 | 38 | 321 | 1.6 | 4.8 | 0.00 | 0.00 | 0.00 | 36 | 1012.5 |
| 20260905221928 | 38 | 50 | 4.8 | 4.8 | 0.00 | 0.00 | 0.00 | 37 | 1012.5 |
| 20260905221424 | 38 | 50 | 1.6 | 6.4 | 0.00 | 0.00 | 0.00 | 38 | 1012.7 |
| 20260905220920 | 38 | 307 | 4.8 | 4.8 | 0.00 | 0.00 | 0.00 | 38 | 1012.7 |
| 20260905220416 | 37 | 105 | 1.6 | 4.8 | 0.00 | 0.00 | 0.00 | 38 | 1012.5 |
| 20260905215915 | 37 | 68 | 3.2 | 6.4 | 0.00 | 0.00 | 0.00 | 38 | 1012.7 |
| 20260905215411 | 37 | 5 | 4.8 | 6.4 | 0.00 | 0.00 | 0.00 | 38 | 1012.7 |
| 20260905214907 | 37 | 315 | 4.8 | 12.9 | 0.00 | 0.00 | 0.00 | 38 | 1012.9 |
| 20260905214403 | 37 | 313 | 11.3 | 14.5 | 0.00 | 0.00 | 0.00 | 38 | 1012.6 |
| 20260905213857 | 37 | 297 | 4.8 | 12.9 | 0.00 | 0.00 | 0.00 | 38 | 1012.8 |
| 20260905213354 | 37 | 42 | 6.4 | 12.9 | 0.00 | 0.00 | 0.00 | 38 | 1012.9 |
| 20260905212854 | 37 | 309 | 12.9 | 16.1 | 0.00 | 0.00 | 0.00 | 39 | 1012.9 |
| 20260905212354 | 37 | 10 | 4.8 | 9.7 | 0.00 | 0.00 | 0.00 | 39 | 1013.0 |
| 20260905211847 | 37 | 10 | 6.4 | 6.4 | 0.00 | 0.00 | 0.00 | 38 | 1012.9 |
| 20260905211344 | 37 | 301 | 4.8 | 11.3 | 0.00 | 0.00 | 0.00 | 39 | 1013.0 |
| 20260905210840 | 37 | 318 | 11.3 | 16.1 | 0.00 | 0.00 | 0.00 | 38 | 1013.2 |
| 20260905210340 | 38 | 339 | 11.3 | 16.1 | 0.00 | 0.00 | 0.00 | 38 | 1013.2 |
| 20260905205839 | 38 | 309 | 6.4 | 12.9 | 0.00 | 0.00 | 0.00 | 39 | 1013.2 |
| 20260905205333 | 37 | 207 | 3.2 | 6.4 | 0.00 | 0.00 | 0.00 | 38 | 1013.3 |
| 20260905204832 | 37 | 312 | 9.7 | 14.5 | 0.00 | 0.00 | 0.00 | 39 | 1013.5 |
| 20260905204329 | 37 | 296 | 6.4 | 12.9 | 0.00 | 0.00 | 0.00 | 39 | 1013.5 |
| 20260905203827 | 37 | 335 | 9.7 | 14.5 | 0.00 | 0.00 | 0.00 | 40 | 1013.3 |
| 20260905203324 | 38 | 21 | 6.4 | 9.7 | 0.00 | 0.00 | 0.00 | 39 | 1013.6 |
| 20260905202819 | 37 | 330 | 1.6 | 6.4 | 0.00 | 0.00 | 0.00 | 40 | 1013.7 |
| 20260905202314 | 37 | 322 | 4.8 | 16.1 | 0.00 | 0.00 | 0.00 | 40 | 1013.5 |
| 20260905201809 | 37 | 327 | 9.7 | 16.1 | 0.00 | 0.00 | 0.00 | 41 | 1013.8 |
| 20260905201304 | 36 | 352 | 6.4 | 14.5 | 0.00 | 0.00 | 0.00 | 41 | 1013.8 |
| 20260905200759 | 37 | 246 | 9.7 | 12.9 | 0.00 | 0.00 | 0.00 | 41 | 1013.8 |
| 20260905200255 | 37 | 299 | 6.4 | 9.7 | 0.00 | 0.00 | 0.00 | 41 | 1014.0 |
| 20260905195753 | 37 | 321 | 8.0 | 12.9 | 0.00 | 0.00 | 0.00 | 41 | 1014.2 |
| 20260905195248 | 36 | 333 | 9.7 | 14.5 | 0.00 | 0.00 | 0.00 | 42 | 1014.2 |
| 20260905194743 | 36 | 305 | 12.9 | 16.1 | 0.00 | 0.00 | 0.00 | 42 | 1014.1 |
| 20260905194242 | 37 | 320 | 12.9 | 14.5 | 0.00 | 0.00 | 0.00 | 41 | 1014.3 |
| 20260905193737 | 37 | 307 | 9.7 | 14.5 | 0.00 | 0.00 | 0.00 | 41 | 1014.2 |
| 20260905193232 | 37 | 316 | 12.9 | 16.1 | 0.00 | 0.00 | 0.00 | 41 | 1014.3 |
| 20260905192727 | 36 | 338 | 3.2 | 17.7 | 0.00 | 0.00 | 0.00 | 42 | 1014.4 |
| 20260905192224 | 36 | 281 | 4.8 | 11.3 | 0.00 | 0.00 | 0.00 | 43 | 1014.5 |
| 20260905191723 | 36 | 325 | 11.3 | 20.9 | 0.00 | 0.00 | 0.00 | 42 | 1014.5 |
| 20260905191221 | 37 | 259 | 9.7 | 12.9 | 0.00 | 0.00 | 0.00 | 41 | 1014.5 |
| 20260905190720 | 37 | 50 | 4.8 | 6.4 | 0.00 | 0.00 | 0.00 | 41 | 1014.5 |
| 20260905190219 | 37 | 355 | 6.4 | 14.5 | 0.00 | 0.00 | 0.00 | 42 | 1014.7 |
| 20260905185718 | 37 | 218 | 6.4 | 11.3 | 0.00 | 0.00 | 0.00 | 41 | 1014.8 |
| 20260905185213 | 36 | 271 | 4.8 | 6.4 | 0.00 | 0.00 | 0.00 | 42 | 1015.0 |
| 20260905184713 | 36 | 247 | 6.4 | 14.5 | 0.00 | 0.00 | 0.00 | 43 | 1015.2 |
| 20260905184212 | 36 | 330 | 8.0 | 14.5 | 0.00 | 0.00 | 0.00 | 44 | 1015.2 |
| 20260905183706 | 36 | 359 | 8.0 | 14.5 | 0.00 | 0.00 | 0.00 | 44 | 1015.2 |
| 20260905183201 | 36 | 4 | 4.8 | 6.4 | 0.00 | 0.00 | 0.00 | 43 | 1015.2 |
| 20260905182700 | 36 | 319 | 9.7 | 14.5 | 0.00 | 0.00 | 0.00 | 45 | 1015.4 |
| 20260905182155 | 36 | 286 | 11.3 | 17.7 | 0.00 | 0.00 | 0.00 | 44 | 1015.3 |
| 20260905181650 | 36 | 232 | 4.8 | 9.7 | 0.00 | 0.00 | 0.00 | 45 | 1015.5 |
| 20260905181149 | 36 | 340 | 12.9 | 16.1 | 0.00 | 0.00 | 0.00 | 45 | 1015.6 |
| 20260905180644 | 36 | 328 | 9.7 | 11.3 | 0.00 | 0.00 | 0.00 | 44 | 1015.5 |
| 20260905180139 | 35 | 31 | 6.4 | 11.3 | 0.00 | 0.00 | 0.00 | 46 | 1015.7 |
| 20260905175638 | 35 | 320 | 8.0 | 12.9 | 0.00 | 0.00 | 0.00 | 47 | 1015.8 |
| 20260905175134 | 36 | 313 | 11.3 | 20.9 | 0.00 | 0.00 | 0.00 | 46 | 1015.9 |
| 20260905174629 | 36 | 349 | 11.3 | 14.5 | 0.00 | 0.00 | 0.00 | 46 | 1015.8 |
| 20260905174125 | 36 | 322 | 8.0 | 14.5 | 0.00 | 0.00 | 0.00 | 46 | 1015.9 |
| 20260905173621 | 35 | 336 | 3.2 | 6.4 | 0.00 | 0.00 | 0.00 | 46 | 1016.2 |
| 20260905173116 | 35 | 338 | 4.8 | 9.7 | 0.00 | 0.00 | 0.00 | 48 | 1016.2 |
| 20260905172615 | 35 | 333 | 9.7 | 14.5 | 0.00 | 0.00 | 0.00 | 49 | 1016.1 |